Time;durP1;ratioP1;P1;durP2;ratioP2;P2;SDS_P1;SDS_P2;PMS_P1;PMS_P2;Temp;Humidity;BMP_temperature;BMP_pressure;BME280_temperature;BME280_humidity;BME280_pressure;Samples;Min_cycle;Max_cycle;Signal;HPM_P1;HPM_P2
2021/07/15 00:00:00;;;;;;;1.8;1.5;;;;;;;14.09;94.49805;935.8005;;;;
2021/07/15 00:02:25;;;;;;;1.8;1.6;;;;;;;14.12;95.35742;935.7513;;;;
2021/07/15 00:04:53;;;;;;;2.4;1.6;;;;;;;14.1;95.7666;935.7139;;;;
2021/07/15 00:07:18;;;;;;;3.9;1.5;;;;;;;13.97;96.60156;935.7706;;;;
2021/07/15 00:09:43;;;;;;;4.2;1.6;;;;;;;13.94;96.77734;935.7525;;;;
2021/07/15 00:12:12;;;;;;;2.9;1.3;;;;;;;13.99;96.24902;935.7553;;;;
2021/07/15 00:14:37;;;;;;;1.7;1.5;;;;;;;14.02;96.18555;935.7217;;;;
2021/07/15 00:17:08;;;;;;;2.6;2;;;;;;;14.04;96.09766;935.6848;;;;
2021/07/15 00:19:33;;;;;;;2.1;1.6;;;;;;;14.04;96.12109;935.712;;;;
2021/07/15 00:21:58;;;;;;;2.1;1.7;;;;;;;14.02;95.36816;935.7338;;;;
2021/07/15 00:24:25;;;;;;;2.8;1.5;;;;;;;14.02;95.51855;935.7482;;;;
2021/07/15 00:26:50;;;;;;;2.8;1.6;;;;;;;14.06;95.75781;935.7246;;;;
2021/07/15 00:29:15;;;;;;;2.5;1.6;;;;;;;13.86;96.7041;935.645;;;;
2021/07/15 00:31:41;;;;;;;1.9;1.5;;;;;;;13.84;97.02051;935.6572;;;;
2021/07/15 00:34:06;;;;;;;2.8;1.4;;;;;;;13.76;97.09375;935.6096;;;;
2021/07/15 00:36:32;;;;;;;1.7;1.3;;;;;;;13.83;96.63867;935.5669;;;;
2021/07/15 00:38:57;;;;;;;3;1.5;;;;;;;13.87;96.45117;935.4977;;;;
2021/07/15 00:41:25;;;;;;;4.6;1.6;;;;;;;13.94;96.10059;935.4788;;;;
2021/07/15 00:43:49;;;;;;;2.6;1.6;;;;;;;14.02;95.84082;935.4512;;;;
2021/07/15 00:46:16;;;;;;;2.2;1.3;;;;;;;13.94;95.55762;935.4587;;;;
2021/07/15 00:48:41;;;;;;;2.4;1.3;;;;;;;13.97;95.98926;935.4721;;;;
2021/07/15 00:51:08;;;;;;;2.1;1.6;;;;;;;13.9;95.90625;935.4478;;;;
2021/07/15 00:53:34;;;;;;;2.1;1.6;;;;;;;13.93;95.9375;935.4236;;;;
2021/07/15 00:56:01;;;;;;;2.3;1.6;;;;;;;13.9;95.7666;935.4222;;;;
2021/07/15 00:58:26;;;;;;;2.1;1.6;;;;;;;13.91;95.98926;935.3389;;;;
2021/07/15 01:00:52;;;;;;;2;1.8;;;;;;;13.93;95.32422;935.3716;;;;
2021/07/15 01:03:17;;;;;;;2.7;1.9;;;;;;;13.86;95.41504;935.2688;;;;
2021/07/15 01:05:42;;;;;;;2.2;1.6;;;;;;;13.75;96.83691;935.3398;;;;
2021/07/15 01:08:08;;;;;;;2;1.7;;;;;;;13.69;96.75781;935.3387;;;;
2021/07/15 01:10:35;;;;;;;2;1.6;;;;;;;13.37;98.19336;935.3226;;;;
2021/07/15 01:13:00;;;;;;;1.5;1.4;;;;;;;13.21;99.60254;935.277;;;;
2021/07/15 01:15:42;;;;;;;2.1;1.8;;;;;;;13.34;99.25195;935.2237;;;;
2021/07/15 01:18:09;;;;;;;2.6;1.7;;;;;;;13.32;98.98535;935.2119;;;;
2021/07/15 01:20:39;;;;;;;2.3;1.8;;;;;;;13.44;98.61035;935.2562;;;;
2021/07/15 01:23:03;;;;;;;2.4;1.8;;;;;;;13.39;98.26465;935.2281;;;;
2021/07/15 01:25:28;;;;;;;2.1;1.4;;;;;;;13.36;99.05078;935.2644;;;;
2021/07/15 01:27:57;;;;;;;2.1;1.7;;;;;;;13.4;98.80859;935.3192;;;;
2021/07/15 01:30:23;;;;;;;1.6;1.5;;;;;;;13.21;99.27148;935.39;;;;
2021/07/15 01:32:48;;;;;;;1.9;1.6;;;;;;;13.33;99.12598;935.3077;;;;
2021/07/15 01:35:18;;;;;;;1.8;1.5;;;;;;;13.39;98.51758;935.245;;;;
2021/07/15 01:37:44;;;;;;;2.6;1.9;;;;;;;13.45;98.14063;935.1672;;;;
2021/07/15 01:40:15;;;;;;;2.4;1.8;;;;;;;13.52;97.70898;935.1379;;;;
2021/07/15 01:42:40;;;;;;;2;1.7;;;;;;;13.6;97.45117;935.191;;;;
2021/07/15 01:45:08;;;;;;;4;1.7;;;;;;;13.68;97.52441;935.1819;;;;
2021/07/15 01:47:34;;;;;;;1.9;1.5;;;;;;;13.76;96.52148;935.1741;;;;
2021/07/15 01:49:59;;;;;;;2;1.6;;;;;;;13.74;96.41113;935.1727;;;;
2021/07/15 01:52:29;;;;;;;1.6;1.5;;;;;;;13.7;95.95508;935.1978;;;;
2021/07/15 01:54:53;;;;;;;2.5;1.6;;;;;;;13.65;96.36816;935.2109;;;;
2021/07/15 01:57:19;;;;;;;2.4;1.5;;;;;;;13.62;96.46387;935.1912;;;;
2021/07/15 01:59:44;;;;;;;2.6;1.5;;;;;;;13.63;96.73242;935.1688;;;;
2021/07/15 02:02:14;;;;;;;2.2;1.6;;;;;;;13.71;96.48633;935.1794;;;;
2021/07/15 02:04:39;;;;;;;1.5;1.4;;;;;;;13.74;96.12402;935.1039;;;;
2021/07/15 02:07:08;;;;;;;1.7;1.6;;;;;;;13.79;95.77734;935.1763;;;;
2021/07/15 02:09:33;;;;;;;3.8;1.9;;;;;;;13.78;96.21484;935.1739;;;;
2021/07/15 02:12:03;;;;;;;3.7;1.6;;;;;;;13.84;96.35449;935.1578;;;;
2021/07/15 02:14:31;;;;;;;2.4;1.6;;;;;;;13.81;97.07422;935.1305;;;;
2021/07/15 02:16:56;;;;;;;2.8;1.7;;;;;;;13.83;96.76758;935.1498;;;;
2021/07/15 02:19:26;;;;;;;3.2;1.6;;;;;;;13.82;96.80957;935.098;;;;
2021/07/15 02:21:56;;;;;;;3.2;1.6;;;;;;;13.83;96.69629;935.0242;;;;
2021/07/15 02:24:20;;;;;;;2.7;1.5;;;;;;;13.89;96.99609;935.0645;;;;
2021/07/15 02:26:50;;;;;;;1.5;1.4;;;;;;;13.85;97.05859;935.012;;;;
2021/07/15 02:29:15;;;;;;;1.9;1.6;;;;;;;13.83;97.49023;935.0642;;;;
2021/07/15 02:31:45;;;;;;;3.3;1.8;;;;;;;13.81;97.12012;935.0601;;;;
2021/07/15 02:34:10;;;;;;;1.9;1.7;;;;;;;13.86;96.35742;935.0159;;;;
2021/07/15 02:36:35;;;;;;;3.5;1.7;;;;;;;13.87;96.11719;934.9719;;;;
2021/07/15 02:39:01;;;;;;;4.5;1.2;;;;;;;13.71;93.32324;934.992;;;;
2021/07/15 02:41:27;;;;;;;1.3;1.2;;;;;;;13.65;94.10352;935.0837;;;;
2021/07/15 02:43:54;;;;;;;1.6;1;;;;;;;13.72;94.36035;935.0433;;;;
2021/07/15 02:46:19;;;;;;;2.6;1.4;;;;;;;13.78;95.18848;935.1149;;;;
2021/07/15 02:48:45;;;;;;;1.9;1.1;;;;;;;13.66;94.48633;935.0405;;;;
2021/07/15 02:51:10;;;;;;;1.4;1.3;;;;;;;13.76;94.73633;935.0076;;;;
2021/07/15 02:53:36;;;;;;;1.7;1.4;;;;;;;13.84;94.35156;935.0538;;;;
2021/07/15 02:56:01;;;;;;;1.6;1.2;;;;;;;13.92;94.42578;935.0659;;;;
2021/07/15 02:58:26;;;;;;;2.3;1.6;;;;;;;13.93;94.08105;935.0722;;;;
2021/07/15 03:00:51;;;;;;;2.4;1.3;;;;;;;13.76;94.47168;935.0413;;;;
2021/07/15 03:03:20;;;;;;;3;1.6;;;;;;;13.87;94.31055;935.1247;;;;
2021/07/15 03:05:49;;;;;;;2.1;1.6;;;;;;;13.97;94.32324;935.1431;;;;
2021/07/15 03:08:14;;;;;;;3.4;1.7;;;;;;;13.91;94.54883;935.178;;;;
2021/07/15 03:10:39;;;;;;;2;1.8;;;;;;;13.89;95.28125;935.1799;;;;
2021/07/15 03:13:04;;;;;;;1.8;1.6;;;;;;;13.92;95.51953;935.2156;;;;
2021/07/15 03:15:31;;;;;;;2;1.5;;;;;;;13.9;95.33105;935.2269;;;;
2021/07/15 03:17:58;;;;;;;1.9;1.6;;;;;;;13.89;95.47852;935.2246;;;;
2021/07/15 03:20:23;;;;;;;2.4;1.9;;;;;;;13.86;95.50781;935.192;;;;
2021/07/15 03:22:51;;;;;;;3.3;1.9;;;;;;;13.89;95.55957;935.251;;;;
2021/07/15 03:25:18;;;;;;;2.3;1.6;;;;;;;13.91;95.72461;935.2541;;;;
2021/07/15 03:27:43;;;;;;;2.2;1.7;;;;;;;13.84;95.94043;935.2578;;;;
2021/07/15 03:30:08;;;;;;;3.5;1.9;;;;;;;13.81;96.23145;935.2322;;;;
2021/07/15 03:32:33;;;;;;;4.5;2.2;;;;;;;13.76;97.03711;935.2558;;;;
2021/07/15 03:34:58;;;;;;;2.1;1.9;;;;;;;13.77;96.90039;935.2293;;;;
2021/07/15 03:37:26;;;;;;;3;1.9;;;;;;;13.81;96.92188;935.2065;;;;
2021/07/15 03:39:51;;;;;;;2.6;1.8;;;;;;;13.92;96.63574;935.2203;;;;
2021/07/15 03:42:19;;;;;;;4.9;2.7;;;;;;;13.95;96.82617;935.1945;;;;
2021/07/15 03:44:44;;;;;;;3.9;2.5;;;;;;;13.98;96.14355;935.115;;;;
2021/07/15 03:47:11;;;;;;;5.4;2.3;;;;;;;13.98;96.09766;935.139;;;;
2021/07/15 03:49:36;;;;;;;3.3;1.8;;;;;;;14.01;95.7002;935.1019;;;;
2021/07/15 03:52:01;;;;;;;4.6;2.1;;;;;;;14.04;96.37402;935.0988;;;;
2021/07/15 03:54:26;;;;;;;2.7;1.6;;;;;;;14.01;96.71289;935.1595;;;;
2021/07/15 03:56:57;;;;;;;3.2;1.6;;;;;;;14;97.04492;935.1732;;;;
2021/07/15 03:59:25;;;;;;;4.6;2.1;;;;;;;14.07;96.68066;935.2097;;;;
2021/07/15 04:02:32;;;;;;;3.3;1.7;;;;;;;14.09;96.36523;935.2536;;;;
2021/07/15 04:04:57;;;;;;;3.1;1.8;;;;;;;14.08;95.41504;935.2922;;;;
2021/07/15 04:07:25;;;;;;;2.5;1.4;;;;;;;14.03;95.84277;935.3262;;;;
2021/07/15 04:09:50;;;;;;;1.7;1.5;;;;;;;14.04;96.08789;935.4317;;;;
2021/07/15 04:12:18;;;;;;;1.8;1.7;;;;;;;14.1;95.61621;935.3567;;;;
2021/07/15 04:14:43;;;;;;;5.2;1.6;;;;;;;14.07;94.97754;935.4347;;;;
2021/07/15 04:17:08;;;;;;;1.5;1.4;;;;;;;13.8;97.04688;935.5044;;;;
2021/07/15 04:19:37;;;;;;;5.4;1.5;;;;;;;13.78;97.36523;935.4925;;;;
2021/07/15 04:22:02;;;;;;;4.2;2.1;;;;;;;13.88;96.52246;935.4872;;;;
2021/07/15 04:24:31;;;;;;;3.4;2.1;;;;;;;13.95;96.45703;935.5698;;;;
2021/07/15 04:26:57;;;;;;;5;2.5;;;;;;;14.01;96.4834;935.5455;;;;
2021/07/15 04:29:26;;;;;;;2.9;2.3;;;;;;;14.02;96.89941;935.6169;;;;
2021/07/15 04:31:51;;;;;;;3.5;2.2;;;;;;;13.98;97.00391;935.5825;;;;
2021/07/15 04:34:16;;;;;;;3.2;2.2;;;;;;;13.97;97.41895;935.5666;;;;
2021/07/15 04:36:45;;;;;;;2.7;2.3;;;;;;;14.02;97.55566;935.6017;;;;
2021/07/15 04:39:11;;;;;;;3.2;2.2;;;;;;;14.04;97.73438;935.6383;;;;
2021/07/15 04:41:36;;;;;;;6.4;2.7;;;;;;;13.94;97.68848;935.6484;;;;
2021/07/15 04:44:01;;;;;;;4;2.8;;;;;;;14;97.01074;935.66;;;;
2021/07/15 04:46:29;;;;;;;3;2.4;;;;;;;14.04;96.92676;935.6495;;;;
2021/07/15 04:48:54;;;;;;;3.3;2.4;;;;;;;13.88;98.35352;935.5977;;;;
2021/07/15 04:51:22;;;;;;;2.8;2;;;;;;;13.95;98.20703;935.6724;;;;
2021/07/15 04:53:47;;;;;;;2.9;2;;;;;;;14.03;97.77637;935.6912;;;;
2021/07/15 04:56:14;;;;;;;2.2;1.9;;;;;;;14.1;97.40039;935.7444;;;;
2021/07/15 04:58:39;;;;;;;2.7;1.7;;;;;;;14.14;95.75293;935.7551;;;;
2021/07/15 05:01:07;;;;;;;2.4;1.9;;;;;;;14.2;95.68457;935.7315;;;;
2021/07/15 05:03:32;;;;;;;2.3;1.6;;;;;;;14.27;95.04395;935.8072;;;;
2021/07/15 05:06:00;;;;;;;2;1.8;;;;;;;14.31;95.04004;935.7949;;;;
2021/07/15 05:08:25;;;;;;;3.4;1.9;;;;;;;14.35;95.62598;935.772;;;;
2021/07/15 05:10:53;;;;;;;3.1;2.3;;;;;;;14.33;94.15723;935.6898;;;;
2021/07/15 05:13:19;;;;;;;4.1;2;;;;;;;14.27;94.41992;935.7969;;;;
2021/07/15 05:15:49;;;;;;;2.9;2.1;;;;;;;14.26;95.08789;935.6872;;;;
2021/07/15 05:18:14;;;;;;;2.3;1.9;;;;;;;14.29;95.60059;935.7238;;;;
2021/07/15 05:20:42;;;;;;;4.5;1.9;;;;;;;14.39;95.70313;935.6892;;;;
2021/07/15 05:23:07;;;;;;;2.8;1.7;;;;;;;14.41;96.57129;935.7083;;;;
2021/07/15 05:25:34;;;;;;;2.6;1.8;;;;;;;14.36;95.69531;935.6816;;;;
2021/07/15 05:27:59;;;;;;;3.6;2.1;;;;;;;14.39;95.81641;935.702;;;;
2021/07/15 05:30:27;;;;;;;2.4;1.9;;;;;;;14.41;95.01563;935.7403;;;;
2021/07/15 05:32:52;;;;;;;2.5;1.8;;;;;;;14.4;95.14258;935.6923;;;;
2021/07/15 05:35:18;;;;;;;3;1.8;;;;;;;14.47;94.55664;935.7115;;;;
2021/07/15 05:37:43;;;;;;;4.7;1.9;;;;;;;14.54;95.16016;935.7332;;;;
2021/07/15 05:40:11;;;;;;;2.1;1.9;;;;;;;14.48;95.7002;935.7194;;;;
2021/07/15 05:42:36;;;;;;;2.8;1.6;;;;;;;14.51;94.95703;935.627;;;;
2021/07/15 05:45:02;;;;;;;2.8;1.9;;;;;;;14.6;94.81738;935.6292;;;;
2021/07/15 05:47:27;;;;;;;3.3;1.8;;;;;;;14.54;94.2041;935.6603;;;;
2021/07/15 05:49:54;;;;;;;1.8;1.5;;;;;;;14.55;93.59473;935.649;;;;
2021/07/15 05:52:19;;;;;;;4;1.8;;;;;;;14.62;94.28906;935.6309;;;;
2021/07/15 05:54:46;;;;;;;2.4;1.5;;;;;;;14.7;94.2832;935.6149;;;;
2021/07/15 05:57:11;;;;;;;2.7;1.3;;;;;;;14.65;93.98535;935.5969;;;;
2021/07/15 05:59:39;;;;;;;2.4;1.4;;;;;;;14.71;93.20313;935.622;;;;
2021/07/15 06:02:04;;;;;;;4.7;2.4;;;;;;;14.8;92.79395;935.6306;;;;
2021/07/15 06:04:30;;;;;;;3.1;2.3;;;;;;;14.79;93.23047;935.6331;;;;
2021/07/15 06:06:55;;;;;;;3.3;2.7;;;;;;;14.88;94.54297;935.5602;;;;
2021/07/15 06:09:21;;;;;;;4.4;2.3;;;;;;;15.04;95.00293;935.6324;;;;
2021/07/15 06:11:46;;;;;;;3.8;2.7;;;;;;;15.15;94.16113;935.6223;;;;
2021/07/15 06:14:13;;;;;;;3;2.2;;;;;;;15.14;93.58496;935.6231;;;;
2021/07/15 06:16:45;;;;;;;4.2;2.6;;;;;;;14.88;92.3291;935.6332;;;;
2021/07/15 06:19:12;;;;;;;4.9;2.8;;;;;;;14.97;92.66895;935.5689;;;;
2021/07/15 06:21:37;;;;;;;3.4;2;;;;;;;15.11;92.89453;935.5114;;;;
2021/07/15 06:24:04;;;;;;;4.1;2.8;;;;;;;15.29;93.48828;935.4933;;;;
2021/07/15 06:26:29;;;;;;;3.9;2;;;;;;;15.11;92.49023;935.5587;;;;
2021/07/15 06:28:56;;;;;;;2.4;2.1;;;;;;;15.04;93.42285;935.5281;;;;
2021/07/15 06:31:21;;;;;;;3.1;1.8;;;;;;;15.17;93.11523;935.4897;;;;
2021/07/15 06:33:48;;;;;;;2.4;1.8;;;;;;;15.27;92.88477;935.5023;;;;
2021/07/15 06:36:13;;;;;;;4.7;2;;;;;;;15.33;92.02832;935.4655;;;;
2021/07/15 06:38:40;;;;;;;3.6;1.9;;;;;;;15.33;92.06641;935.4052;;;;
2021/07/15 06:41:04;;;;;;;4.3;2.1;;;;;;;15.31;92.69629;935.3004;;;;
2021/07/15 06:43:31;;;;;;;2.6;1.8;;;;;;;15.49;92.67871;935.3544;;;;
2021/07/15 06:45:56;;;;;;;4.2;1.6;;;;;;;15.58;92.7998;935.3506;;;;
2021/07/15 06:48:23;;;;;;;3.5;2.1;;;;;;;15.72;92.70117;935.3557;;;;
2021/07/15 06:50:48;;;;;;;3.2;1.9;;;;;;;15.22;93.25391;935.3193;;;;
2021/07/15 06:53:14;;;;;;;3.3;2.1;;;;;;;14.98;95.33594;935.1663;;;;
2021/07/15 06:55:39;;;;;;;4.6;2.1;;;;;;;15.03;95.21094;935.2147;;;;
2021/07/15 06:58:06;;;;;;;5.6;2.4;;;;;;;15.32;94.63672;935.1711;;;;
2021/07/15 07:00:31;;;;;;;4.3;2;;;;;;;15.47;93.08789;935.1942;;;;
2021/07/15 07:02:57;;;;;;;2.3;1.8;;;;;;;15.19;92.78613;935.0892;;;;
2021/07/15 07:05:22;;;;;;;3.3;2.1;;;;;;;15.29;93.29199;935.0447;;;;
2021/07/15 07:07:48;;;;;;;2.1;1.9;;;;;;;15.47;93.51563;935.0225;;;;
2021/07/15 07:10:13;;;;;;;3;1.8;;;;;;;15.52;93.31934;935.0209;;;;
2021/07/15 07:12:41;;;;;;;2.3;1.6;;;;;;;15.66;92.50293;935.0483;;;;
2021/07/15 07:15:07;;;;;;;4.5;1.7;;;;;;;15.73;92.91113;935.0087;;;;
2021/07/15 07:17:32;;;;;;;1.8;1.4;;;;;;;16.12;92.0332;934.9587;;;;
2021/07/15 07:19:59;;;;;;;1.7;1.2;;;;;;;16.17;90.36816;934.9562;;;;
2021/07/15 07:22:24;;;;;;;1.3;1.2;;;;;;;15.97;91.14746;934.9964;;;;
2021/07/15 07:24:49;;;;;;;2.1;1.3;;;;;;;16.35;88.25098;934.9767;;;;
2021/07/15 07:27:14;;;;;;;2.4;1.3;;;;;;;16.2;88.62695;934.9928;;;;
2021/07/15 07:29:41;;;;;;;1.2;1.2;;;;;;;15.9;88.5332;934.8802;;;;
2021/07/15 07:32:06;;;;;;;1.5;1.2;;;;;;;15.56;91.28223;934.8934;;;;
2021/07/15 07:34:38;;;;;;;1.4;1.3;;;;;;;15.48;92.7207;934.9637;;;;
2021/07/15 07:37:07;;;;;;;1.4;1.3;;;;;;;15.31;92.40918;934.9386;;;;
2021/07/15 07:39:32;;;;;;;1.4;1.1;;;;;;;15.38;92.18945;934.8245;;;;
2021/07/15 07:41:59;;;;;;;2;1.8;;;;;;;15.55;91.91602;934.9451;;;;
2021/07/15 07:44:24;;;;;;;2;1.8;;;;;;;15.73;91.28223;934.9389;;;;
2021/07/15 07:46:51;;;;;;;2.3;1.8;;;;;;;15.94;91.55859;934.9124;;;;
2021/07/15 07:49:16;;;;;;;1.8;1.6;;;;;;;16.06;91.69824;934.9204;;;;
2021/07/15 07:51:46;;;;;;;2.2;1.6;;;;;;;15.89;92.57715;934.8474;;;;
2021/07/15 07:54:11;;;;;;;1.9;1.8;;;;;;;16.05;92.74707;934.9335;;;;
2021/07/15 07:56:37;;;;;;;1.4;1.3;;;;;;;15.83;92.03027;934.8895;;;;
2021/07/15 07:59:02;;;;;;;1.9;1.7;;;;;;;16.19;92.34961;934.8354;;;;
2021/07/15 08:01:27;;;;;;;1.5;1.4;;;;;;;16.29;90.47266;934.8356;;;;
2021/07/15 08:03:55;;;;;;;2.3;1.6;;;;;;;16.63;89.40723;934.8323;;;;
2021/07/15 08:06:20;;;;;;;2;1.7;;;;;;;16.86;89.47852;934.8645;;;;
2021/07/15 08:08:48;;;;;;;1.7;1.6;;;;;;;17.07;88.08496;934.85;;;;
2021/07/15 08:11:20;;;;;;;0.9;0.9;;;;;;;16.89;85.31543;934.8959;;;;
2021/07/15 08:13:45;;;;;;;1.7;1.1;;;;;;;16.76;86.26172;934.8984;;;;
2021/07/15 08:16:27;;;;;;;2;1.6;;;;;;;16.85;87.69434;934.9007;;;;
2021/07/15 08:18:52;;;;;;;1.3;1.2;;;;;;;17.06;85.52051;934.8808;;;;
2021/07/15 08:21:22;;;;;;;1.2;1.1;;;;;;;17.19;86.85645;934.9512;;;;
2021/07/15 08:23:47;;;;;;;1.4;1.3;;;;;;;17.32;86.58008;934.9367;;;;
2021/07/15 08:26:16;;;;;;;2.4;1.5;;;;;;;17.5;87.03516;934.9562;;;;
2021/07/15 08:28:46;;;;;;;2.1;1.4;;;;;;;17.48;83.71191;934.9961;;;;
2021/07/15 08:31:15;;;;;;;1.5;1.2;;;;;;;17.69;83.59082;934.9695;;;;
2021/07/15 08:33:40;;;;;;;2.5;1.4;;;;;;;17.83;82.79199;934.9841;;;;
2021/07/15 08:36:09;;;;;;;2.6;1.3;;;;;;;17.99;83.4248;934.9522;;;;
2021/07/15 08:38:34;;;;;;;1.6;1.3;;;;;;;18.11;80.64941;934.9977;;;;
2021/07/15 08:40:59;;;;;;;1.6;1.5;;;;;;;18.28;81.22559;934.9763;;;;
2021/07/15 08:43:24;;;;;;;1.5;1.3;;;;;;;18.29;77.6377;935.017;;;;
2021/07/15 08:45:53;;;;;;;1.5;1.3;;;;;;;18.18;77.6416;935.0443;;;;
2021/07/15 08:48:18;;;;;;;1.7;1.4;;;;;;;18.24;79.17383;935.0312;;;;
2021/07/15 08:50:43;;;;;;;1.4;1.3;;;;;;;18.2;76.09961;935.0906;;;;
2021/07/15 08:53:09;;;;;;;1.6;1.5;;;;;;;18.21;80.55273;935.0613;;;;
2021/07/15 08:58:01;;;;;;;1.2;1.1;;;;;;;18.38;78.90918;935.1566;;;;
2021/07/15 09:00:28;;;;;;;1.7;1.1;;;;;;;18.54;80.22852;935.1058;;;;
2021/07/15 09:02:53;;;;;;;1.2;1.1;;;;;;;18.61;80.98438;935.1122;;;;
2021/07/15 09:05:20;;;;;;;2.4;1.3;;;;;;;18.78;77.47852;935.0687;;;;
2021/07/15 09:07:46;;;;;;;0.9;0.9;;;;;;;18.84;77.0127;935.0639;;;;
2021/07/15 09:10:13;;;;;;;0.8;0.8;;;;;;;18.74;74.98145;935.0932;;;;
2021/07/15 09:12:38;;;;;;;1.1;1;;;;;;;18.56;75.8125;935.1199;;;;
2021/07/15 09:15:05;;;;;;;0.9;0.9;;;;;;;18.68;79.05566;935.1367;;;;
2021/07/15 09:17:30;;;;;;;1.5;1.3;;;;;;;18.68;80.06738;935.1424;;;;
2021/07/15 09:19:57;;;;;;;2.3;1.4;;;;;;;18.69;78.67285;935.1113;;;;
2021/07/15 09:22:22;;;;;;;1.5;0.9;;;;;;;18.48;75.81055;935.1979;;;;
2021/07/15 09:24:50;;;;;;;1.5;1.3;;;;;;;18.36;76.5791;935.178;;;;
2021/07/15 09:27:13;;;;;;;3.2;1.4;;;;;;;18.06;76.88867;935.1964;;;;
2021/07/15 09:29:39;;;;;;;6.6;5.3;;;;;;;17.95;77.69336;935.2472;;;;
2021/07/15 09:32:06;;;;;;;2;1;;;;;;;18.09;76.44043;935.3207;;;;
2021/07/15 09:34:31;;;;;;;1.9;1.6;;;;;;;18.17;78.77832;935.3848;;;;
2021/07/15 09:36:56;;;;;;;1.1;1;;;;;;;18.17;81.64648;935.3422;;;;
2021/07/15 09:39:22;;;;;;;1.2;1.1;;;;;;;18.28;81.3877;935.3591;;;;
2021/07/15 09:41:47;;;;;;;2.5;1.4;;;;;;;18.23;83.56445;935.4182;;;;
2021/07/15 09:44:14;;;;;;;1.4;1.3;;;;;;;18.13;79.52539;935.389;;;;
2021/07/15 09:46:39;;;;;;;2.2;1.4;;;;;;;18.23;82.08887;935.3449;;;;
2021/07/15 09:49:04;;;;;;;2.3;1.3;;;;;;;18.3;81.05566;935.4174;;;;
2021/07/15 09:51:29;;;;;;;1.8;1.6;;;;;;;18.32;83.50195;935.4635;;;;
2021/07/15 09:53:56;;;;;;;1.5;1.4;;;;;;;18.17;81.68164;935.484;;;;
2021/07/15 09:56:21;;;;;;;3.4;2.1;;;;;;;18.31;82.71973;935.5598;;;;
2021/07/15 09:58:48;;;;;;;1.6;1.5;;;;;;;18.35;83.32129;935.5506;;;;
2021/07/15 10:01:14;;;;;;;1.4;1.2;;;;;;;18.63;80.51074;935.5309;;;;
2021/07/15 10:03:39;;;;;;;1.1;1.1;;;;;;;18.82;79.15137;935.5098;;;;
2021/07/15 10:06:04;;;;;;;1.4;1.3;;;;;;;18.7;80.56055;935.5636;;;;
2021/07/15 10:08:30;;;;;;;1.4;1.3;;;;;;;18.9;77.7793;935.5806;;;;
2021/07/15 10:10:57;;;;;;;1.4;1.3;;;;;;;18.88;78.87012;935.485;;;;
2021/07/15 10:13:22;;;;;;;1.2;1.2;;;;;;;19.18;79.98438;935.4922;;;;
2021/07/15 10:16:00;;;;;;;1.5;1.4;;;;;;;19.25;78.24902;935.5069;;;;
2021/07/15 10:18:27;;;;;;;1.5;1.4;;;;;;;19.47;77.16992;935.5726;;;;
2021/07/15 10:20:52;;;;;;;1.7;1.2;;;;;;;19.47;79.09277;935.5379;;;;
2021/07/15 10:23:17;;;;;;;1.5;1.3;;;;;;;19.71;76.64941;935.5808;;;;
2021/07/15 10:25:46;;;;;;;1.8;1.3;;;;;;;19.76;74.4082;935.5178;;;;
2021/07/15 10:28:16;;;;;;;1.4;1.3;;;;;;;19.39;76.05078;935.5527;;;;
2021/07/15 10:30:41;;;;;;;1.5;1.4;;;;;;;19.74;77.01758;935.5297;;;;
2021/07/15 10:33:06;;;;;;;1.7;1.4;;;;;;;19.59;74.91895;935.5288;;;;
2021/07/15 10:35:34;;;;;;;2.2;1.3;;;;;;;19.83;74.59766;935.553;;;;
2021/07/15 10:38:01;;;;;;;2.6;1.2;;;;;;;20.16;72.91309;935.6004;;;;
2021/07/15 10:40:24;;;;;;;1.3;1.2;;;;;;;20.2;72.87402;935.5465;;;;
2021/07/15 10:42:52;;;;;;;1.4;1.3;;;;;;;20.51;70.17969;935.5148;;;;
2021/07/15 10:45:17;;;;;;;1.4;1.3;;;;;;;20.25;69.98633;935.4871;;;;
2021/07/15 10:47:42;;;;;;;1.3;1.2;;;;;;;20.38;69.36426;935.5453;;;;
2021/07/15 10:50:07;;;;;;;3.6;1.4;;;;;;;20.03;70.57031;935.5245;;;;
2021/07/15 10:52:34;;;;;;;1.4;1;;;;;;;20.39;68.71094;935.4883;;;;
2021/07/15 10:55:00;;;;;;;2;1.1;;;;;;;20.68;70.4043;935.503;;;;
2021/07/15 10:57:26;;;;;;;1.2;1.1;;;;;;;20.6;70.60254;935.557;;;;
2021/07/15 10:59:52;;;;;;;1.3;1.2;;;;;;;20.67;68.43945;935.5916;;;;
2021/07/15 11:02:17;;;;;;;1.6;1.2;;;;;;;20.84;69.34277;935.5505;;;;
2021/07/15 11:04:44;;;;;;;1.6;1.1;;;;;;;19.96;69.26367;935.4916;;;;
2021/07/15 11:07:11;;;;;;;1.4;1.1;;;;;;;20.52;72.36523;935.5258;;;;
2021/07/15 11:09:36;;;;;;;2.4;1.2;;;;;;;20.56;71.89258;935.5123;;;;
2021/07/15 11:12:01;;;;;;;1;0.7;;;;;;;19.64;70.7998;935.5391;;;;
2021/07/15 11:14:27;;;;;;;0.8;0.8;;;;;;;19.21;72.45215;935.5385;;;;
2021/07/15 11:16:57;;;;;;;0.7;0.7;;;;;;;19.88;74.08008;935.5659;;;;
2021/07/15 11:19:28;;;;;;;1.1;0.9;;;;;;;19.96;73.05566;935.5772;;;;
2021/07/15 11:21:53;;;;;;;1.4;0.6;;;;;;;19.82;68.17969;935.5435;;;;
2021/07/15 11:24:18;;;;;;;0.6;0.6;;;;;;;18.94;69.40625;935.5494;;;;
2021/07/15 11:26:43;;;;;;;0.6;0.6;;;;;;;19.08;74.58691;935.5612;;;;
2021/07/15 11:29:09;;;;;;;2.4;1;;;;;;;19.08;74.67871;935.6155;;;;
2021/07/15 11:31:34;;;;;;;1.1;0.8;;;;;;;18.76;75.54492;935.6483;;;;
2021/07/15 11:34:07;;;;;;;0.7;0.7;;;;;;;19.22;77.88281;935.623;;;;
2021/07/15 11:36:36;;;;;;;1.4;0.8;;;;;;;19.06;73.75586;935.6257;;;;
2021/07/15 11:39:06;;;;;;;0.7;0.7;;;;;;;18.89;74.6582;935.6316;;;;
2021/07/15 11:41:33;;;;;;;2.4;0.7;;;;;;;19.19;76.67871;935.6365;;;;
2021/07/15 11:43:58;;;;;;;1.4;0.6;;;;;;;18.68;75.57813;935.6414;;;;
2021/07/15 11:46:23;;;;;;;1.6;0.7;;;;;;;19.04;77.22266;935.6003;;;;
2021/07/15 11:48:49;;;;;;;1.1;0.6;;;;;;;19.5;76.47559;935.697;;;;
2021/07/15 11:51:20;;;;;;;3.7;1.1;;;;;;;19.45;76.69922;935.6815;;;;
2021/07/15 11:53:53;;;;;;;1.2;0.7;;;;;;;19.4;73.84863;935.6898;;;;
2021/07/15 11:56:18;;;;;;;1.8;0.9;;;;;;;18.99;74.76855;935.7144;;;;
2021/07/15 11:58:46;;;;;;;2.1;0.7;;;;;;;19.56;72.68555;935.7053;;;;
2021/07/15 12:01:09;;;;;;;2.1;0.7;;;;;;;19.28;72.80371;935.6447;;;;
2021/07/15 12:03:38;;;;;;;0.6;0.6;;;;;;;19.13;74.30566;935.6728;;;;
2021/07/15 12:06:03;;;;;;;0.5;0.5;;;;;;;19.6;76.17773;935.6691;;;;
2021/07/15 12:08:33;;;;;;;0.8;0.8;;;;;;;20.23;74.46484;935.6027;;;;
2021/07/15 12:11:03;;;;;;;1.2;1.1;;;;;;;20.63;70.02246;935.6284;;;;
2021/07/15 12:13:28;;;;;;;0.7;0.6;;;;;;;20.26;68.27148;935.7028;;;;
2021/07/15 12:16:04;;;;;;;0.4;0.4;;;;;;;20.46;69.06152;935.7073;;;;
2021/07/15 12:18:29;;;;;;;0.5;0.5;;;;;;;20.78;70.44434;935.675;;;;
2021/07/15 12:20:54;;;;;;;0.5;0.5;;;;;;;20.99;69.01563;935.7109;;;;
2021/07/15 12:23:21;;;;;;;0.7;0.7;;;;;;;20.68;72.28516;935.7272;;;;
2021/07/15 12:25:46;;;;;;;2.9;0.7;;;;;;;20.76;68.2793;935.7518;;;;
2021/07/15 12:28:13;;;;;;;1.1;0.6;;;;;;;20.63;71.43652;935.7587;;;;
2021/07/15 12:30:38;;;;;;;2.4;0.6;;;;;;;20.46;71.32715;935.798;;;;
2021/07/15 12:33:08;;;;;;;1.4;0.6;;;;;;;20.09;74.74512;935.7709;;;;
2021/07/15 12:35:33;;;;;;;1.5;0.6;;;;;;;20;73.1084;935.7839;;;;
2021/07/15 12:37:59;;;;;;;1.7;0.8;;;;;;;19.71;76.29004;935.8262;;;;
2021/07/15 12:40:23;;;;;;;1.6;0.8;;;;;;;19.93;78.20703;935.7827;;;;
2021/07/15 12:42:48;;;;;;;0.8;0.8;;;;;;;19.99;79.44043;935.7617;;;;
2021/07/15 12:45:14;;;;;;;1.7;0.8;;;;;;;19.8;77.33203;935.8058;;;;
2021/07/15 12:47:39;;;;;;;2.1;0.9;;;;;;;19.85;78.91602;935.8434;;;;
2021/07/15 12:50:11;;;;;;;1.2;0.7;;;;;;;19.58;75.04297;935.8088;;;;
2021/07/15 12:52:36;;;;;;;1.6;0.7;;;;;;;18.88;76.47363;935.8431;;;;
2021/07/15 12:55:02;;;;;;;1.6;0.7;;;;;;;19.19;81.77832;935.9006;;;;
2021/07/15 12:57:27;;;;;;;1;0.7;;;;;;;18.72;78.71289;935.8666;;;;
2021/07/15 12:59:53;;;;;;;0.6;0.5;;;;;;;18.66;78.67969;935.9656;;;;
2021/07/15 13:02:18;;;;;;;0.7;0.5;;;;;;;18.26;78.72363;935.9528;;;;
2021/07/15 13:04:47;;;;;;;0.8;0.5;;;;;;;17.95;78.45898;935.9932;;;;
2021/07/15 13:07:14;;;;;;;0.9;0.5;;;;;;;17.69;81.60645;935.9938;;;;
2021/07/15 13:09:41;;;;;;;1.2;0.7;;;;;;;17.62;81.3125;936.0817;;;;
2021/07/15 13:14:28;;;;;;;1;0.8;;;;;;;17.32;81.8623;936.0633;;;;
2021/07/15 13:16:57;;;;;;;0.6;0.6;;;;;;;17.33;83.82422;936.1074;;;;
2021/07/15 13:19:22;;;;;;;1.2;0.6;;;;;;;17.54;84.55957;936.0995;;;;
2021/07/15 13:21:51;;;;;;;1;0.7;;;;;;;17.84;84.10645;936.1166;;;;
2021/07/15 13:24:18;;;;;;;4.8;1;;;;;;;17.92;83.77344;936.1138;;;;
2021/07/15 13:26:45;;;;;;;0.6;0.5;;;;;;;17.81;80.6875;936.1716;;;;
2021/07/15 13:29:11;;;;;;;0.8;0.5;;;;;;;17.83;80.94434;936.1716;;;;
2021/07/15 13:31:38;;;;;;;0.6;0.6;;;;;;;18.04;81.27539;936.1268;;;;
2021/07/15 13:34:03;;;;;;;1.9;0.7;;;;;;;18.15;81.09766;936.1492;;;;
2021/07/15 13:36:28;;;;;;;1.2;0.8;;;;;;;18.41;83.34277;936.1498;;;;
2021/07/15 13:38:57;;;;;;;1.1;0.9;;;;;;;18.65;79.1084;936.0643;;;;
2021/07/15 13:41:22;;;;;;;1.4;0.7;;;;;;;18.33;77.84082;936.1453;;;;
2021/07/15 13:43:49;;;;;;;0.7;0.7;;;;;;;18.54;79.05371;936.1912;;;;
2021/07/15 13:46:18;;;;;;;1;0.6;;;;;;;18.54;78.05273;936.1857;;;;
2021/07/15 13:48:40;;;;;;;2.3;0.5;;;;;;;18.22;76.25488;936.1639;;;;
2021/07/15 13:51:11;;;;;;;1;0.6;;;;;;;18.34;79.76074;936.2023;;;;
2021/07/15 13:53:31;;;;;;;0.6;0.5;;;;;;;18.39;79.3291;936.1761;;;;
2021/07/15 13:55:58;;;;;;;2.3;0.7;;;;;;;18.5;80.37207;936.194;;;;
2021/07/15 13:58:23;;;;;;;1;0.7;;;;;;;18.46;79.93457;936.1843;;;;
2021/07/15 14:00:50;;;;;;;1;0.7;;;;;;;18.51;80.89648;936.188;;;;
2021/07/15 14:03:15;;;;;;;1.3;0.9;;;;;;;18.47;78.64551;936.2108;;;;
2021/07/15 14:05:42;;;;;;;1.1;0.6;;;;;;;18.57;79.53613;936.2292;;;;
2021/07/15 14:08:07;;;;;;;0.7;0.7;;;;;;;18.43;77.84766;936.236;;;;
2021/07/15 14:10:35;;;;;;;1;0.8;;;;;;;18.42;81.64941;936.1998;;;;
2021/07/15 14:13:00;;;;;;;1.5;0.7;;;;;;;18.54;79.94922;936.1494;;;;
2021/07/15 14:15:37;;;;;;;2.1;0.8;;;;;;;18.64;82.31543;936.1733;;;;
2021/07/15 14:18:04;;;;;;;1.3;0.7;;;;;;;18.86;81.18262;936.177;;;;
2021/07/15 14:20:31;;;;;;;1;0.8;;;;;;;19.05;80.91504;936.1141;;;;
2021/07/15 14:22:59;;;;;;;1.2;0.9;;;;;;;19.08;82.46777;936.0674;;;;